createdAt,value
2023-02-27T08:41:39.671Z,63.04
2023-02-27T08:44:07.521Z,63.15
2023-02-27T08:46:34.893Z,62.58
2023-02-27T08:49:02.244Z,62.37
2023-02-27T08:51:30.004Z,62.01
2023-02-27T08:53:59.113Z,61.78
2023-02-27T08:56:28.363Z,61.12
2023-02-27T08:58:56.412Z,61.04
2023-02-27T09:01:26.160Z,61.00
2023-02-27T09:03:53.807Z,61.04
2023-02-27T09:06:21.128Z,60.83
2023-02-27T09:08:48.429Z,60.54
2023-02-27T09:11:15.764Z,60.60
2023-02-27T09:13:43.031Z,60.89
2023-02-27T09:16:10.414Z,60.49
2023-02-27T09:18:37.751Z,60.49
2023-02-27T09:21:05.229Z,60.25
2023-02-27T09:23:32.583Z,60.30
2023-02-27T09:25:59.875Z,60.25
2023-02-27T09:28:27.370Z,59.94
2023-02-27T09:30:54.714Z,59.95
2023-02-27T09:33:22.011Z,60.09
2023-02-27T09:35:49.385Z,60.17
2023-02-27T09:38:16.740Z,59.84
2023-02-27T09:40:50.293Z,58.76
2023-02-27T09:43:50.691Z,58.91
2023-02-27T09:46:23.358Z,58.57
2023-02-27T09:49:01.940Z,58.68
2023-02-27T09:51:29.847Z,58.77
2023-02-27T09:54:01.715Z,58.99
2023-02-27T09:56:46.480Z,58.54
2023-02-27T10:00:24.416Z,58.95
2023-02-27T10:03:19.801Z,58.38
2023-02-27T10:06:33.889Z,58.12
2023-02-27T10:09:34.814Z,58.50
2023-02-27T10:12:45.812Z,58.28
2023-02-27T10:15:38.944Z,58.15
2023-02-27T10:18:31.277Z,58.25
2023-02-27T10:21:10.711Z,58.04
2023-02-27T10:24:18.123Z,58.70
2023-02-27T10:26:46.225Z,58.75
2023-02-27T10:29:41.632Z,58.64
2023-02-27T10:32:35.674Z,58.63
2023-02-27T10:35:34.837Z,58.92
2023-02-27T10:38:48.084Z,58.77
2023-02-27T10:41:19.136Z,58.51
2023-02-27T10:43:46.859Z,58.27
2023-02-27T10:46:31.039Z,58.06
2023-02-27T10:49:05.524Z,58.52
2023-02-27T10:51:38.335Z,58.72
2023-02-27T10:54:23.653Z,58.47
2023-02-27T10:57:01.092Z,58.50
2023-02-27T10:59:38.001Z,59.26
2023-02-27T11:02:43.651Z,59.05
2023-02-27T11:05:36.982Z,58.82
2023-02-27T11:08:32.172Z,59.25
2023-02-27T11:11:11.440Z,59.35
2023-02-27T11:13:44.951Z,59.53
2023-02-27T11:16:23.637Z,59.52
2023-02-27T11:18:54.359Z,59.21
2023-02-27T11:21:30.125Z,59.35
2023-02-27T11:24:07.741Z,59.83
2023-02-27T11:26:41.200Z,59.20
2023-02-27T11:29:18.964Z,59.92
2023-02-27T11:31:57.256Z,59.03
2023-02-27T11:34:38.354Z,59.40
2023-02-27T11:37:36.363Z,59.28
2023-02-27T11:40:09.909Z,59.66
2023-02-27T11:42:51.634Z,59.79
2023-02-27T11:46:05.090Z,59.42
2023-02-27T11:48:39.833Z,59.19
2023-02-27T11:51:52.105Z,59.19
2023-02-27T11:54:54.463Z,59.32
2023-02-27T11:57:38.178Z,59.24
2023-02-27T12:00:15.995Z,59.44
2023-02-27T12:03:32.619Z,59.18
2023-02-27T12:06:20.543Z,59.10
2023-02-27T12:09:07.574Z,59.04
2023-02-27T12:11:45.930Z,58.97
2023-02-27T12:14:50.916Z,58.91
2023-02-27T12:17:40.726Z,59.12
2023-02-27T12:20:42.601Z,59.24
2023-02-27T12:24:06.907Z,59.23
2023-02-27T12:26:46.739Z,59.37
2023-02-27T12:29:39.868Z,59.60
2023-02-27T12:33:20.141Z,59.48
2023-02-27T12:36:03.922Z,59.59
2023-02-27T12:38:32.698Z,59.68
2023-02-27T12:41:36.987Z,59.32
2023-02-27T12:44:44.949Z,59.95
2023-02-27T12:47:54.644Z,59.90
2023-02-27T12:50:25.923Z,59.96
2023-02-27T12:53:34.247Z,59.13
2023-02-27T12:56:24.535Z,59.07
2023-02-27T12:59:41.959Z,59.26
2023-02-27T13:02:50.227Z,59.20
2023-02-27T13:06:01.669Z,59.40
2023-02-27T13:08:57.639Z,59.25
2023-02-27T13:12:04.692Z,59.20
2023-02-27T13:15:24.397Z,59.62
2023-02-27T13:18:36.625Z,59.98
2023-02-27T13:21:48.180Z,59.58
2023-02-27T13:24:29.761Z,59.80
2023-02-27T13:27:35.934Z,59.35
2023-02-27T13:30:28.125Z,59.34
2023-02-27T13:33:35.157Z,58.64
2023-02-27T13:36:39.791Z,58.35
2023-02-27T13:39:56.691Z,57.91
2023-02-27T13:42:26.946Z,57.63
2023-02-27T13:45:05.691Z,57.64
2023-02-27T13:47:50.102Z,57.04
2023-02-27T13:50:23.123Z,57.92
2023-02-27T13:52:50.843Z,57.58
2023-02-27T13:55:31.223Z,56.85
2023-02-27T13:58:02.076Z,57.72
2023-02-27T14:00:35.554Z,57.99
2023-02-27T14:03:25.682Z,58.22
2023-02-27T14:06:00.904Z,58.53
2023-02-27T14:08:46.491Z,58.34
2023-02-27T14:11:28.718Z,56.94
2023-02-27T14:13:57.624Z,56.72
2023-02-27T14:16:40.062Z,57.08
2023-02-27T14:19:16.094Z,56.63
2023-02-27T14:22:24.589Z,56.03
2023-02-27T14:25:22.034Z,55.61
2023-02-27T14:27:57.401Z,55.70
2023-02-27T14:30:45.778Z,55.54
2023-02-27T14:33:46.405Z,55.36
2023-02-27T14:36:30.810Z,55.36
2023-02-27T14:39:02.212Z,55.33
2023-02-27T14:41:56.778Z,55.40
2023-02-27T14:44:38.028Z,55.34
2023-02-27T14:47:06.955Z,55.58
2023-02-27T14:49:36.131Z,55.19
2023-02-27T14:52:31.714Z,55.00
2023-02-27T14:55:31.388Z,54.91
2023-02-27T14:58:07.484Z,55.15
2023-02-27T15:00:50.527Z,55.03
2023-02-27T15:03:39.887Z,54.83
2023-02-27T15:06:46.266Z,55.14
2023-02-27T15:09:24.831Z,55.19
2023-02-27T15:12:03.850Z,55.26
2023-02-27T15:14:40.036Z,54.80
2023-02-27T15:17:26.284Z,54.70
2023-02-27T15:20:04.047Z,54.27
2023-02-27T15:22:39.934Z,54.32
2023-02-27T15:25:38.891Z,54.56
2023-02-27T15:28:27.665Z,54.68
2023-02-27T15:30:56.734Z,54.93
2023-02-27T15:33:33.372Z,55.12
2023-02-27T15:36:01.616Z,55.25
2023-02-27T15:38:38.009Z,55.51
2023-02-27T15:41:05.589Z,55.91
2023-02-27T15:43:33.270Z,55.86
2023-02-27T15:46:01.007Z,55.47
2023-02-27T15:48:29.904Z,55.79
2023-02-27T15:51:04.397Z,55.67
2023-02-27T15:53:34.005Z,55.69
2023-02-27T15:56:12.094Z,55.34
2023-02-27T15:58:53.866Z,55.01
2023-02-27T16:01:30.828Z,55.17
2023-02-27T16:04:20.675Z,55.14
2023-02-27T16:07:06.113Z,55.13
2023-02-27T16:09:38.431Z,55.07
2023-02-27T16:12:33.399Z,55.26
2023-02-27T16:15:38.310Z,55.18
2023-02-27T16:18:08.598Z,55.50
2023-02-27T16:20:55.661Z,55.42
2023-02-27T16:23:32.003Z,55.74
2023-02-27T16:26:27.473Z,57.14
2023-02-27T16:29:03.912Z,57.47
2023-02-27T16:31:45.880Z,58.29
2023-02-27T16:34:45.390Z,58.51
2023-02-27T16:37:37.004Z,58.54
2023-02-27T16:40:23.374Z,58.70
2023-02-27T16:42:52.816Z,58.19
2023-02-27T16:45:31.221Z,58.75
2023-02-27T16:48:01.129Z,58.32
2023-02-27T16:50:42.999Z,58.54
2023-02-27T16:53:10.383Z,59.11
2023-02-27T16:55:43.411Z,59.09
2023-02-27T16:58:16.414Z,59.50
2023-02-27T17:00:44.482Z,59.51
2023-02-27T17:03:11.790Z,59.47
2023-02-27T17:05:39.591Z,59.56
2023-02-27T17:08:07.183Z,59.85
2023-02-27T17:10:34.618Z,59.81
2023-02-27T17:13:01.895Z,60.42
2023-02-27T17:15:29.193Z,60.03
2023-02-27T17:17:56.509Z,60.07
2023-02-27T17:20:26.050Z,59.92
2023-02-27T17:22:53.397Z,60.14
2023-02-27T17:25:20.742Z,60.25
2023-02-27T17:27:48.254Z,60.51
2023-02-27T17:30:16.578Z,60.58
2023-02-27T17:32:44.026Z,60.59
2023-02-27T17:35:11.576Z,60.08
2023-02-27T17:37:38.959Z,59.76
2023-02-27T17:40:08.261Z,59.68
2023-02-27T17:42:39.918Z,59.61
2023-02-27T17:45:09.355Z,59.40
2023-02-27T17:47:37.507Z,59.43
2023-02-27T17:50:06.048Z,59.47
2023-02-27T17:52:37.452Z,59.08
2023-02-27T17:55:08.608Z,59.28
2023-02-27T17:57:39.067Z,59.04
2023-02-27T18:00:14.331Z,59.12
2023-02-27T18:02:45.350Z,58.82
2023-02-27T18:05:12.813Z,58.86
2023-02-27T18:07:40.525Z,58.81
2023-02-27T18:10:10.165Z,58.72
2023-02-27T18:12:38.474Z,58.68
2023-02-27T18:15:06.911Z,58.96
2023-02-27T18:17:34.396Z,58.87
2023-02-27T18:20:01.829Z,59.10
2023-02-27T18:22:30.009Z,59.02
2023-02-27T18:24:58.704Z,59.30
2023-02-27T18:27:28.000Z,59.31
2023-02-27T18:29:57.590Z,59.33
2023-02-27T18:32:25.288Z,59.26
2023-02-27T18:34:53.524Z,59.54
2023-02-27T18:37:20.866Z,59.01
2023-02-27T18:39:48.190Z,58.73
2023-02-27T18:42:15.505Z,58.37
2023-02-27T18:44:42.863Z,58.67
2023-02-27T18:47:12.059Z,58.39
2023-02-27T18:49:39.493Z,58.33
2023-02-27T18:52:09.193Z,58.16
2023-02-27T18:54:37.741Z,58.23
2023-02-27T18:57:06.050Z,58.23
2023-02-27T18:59:33.480Z,57.79
2023-02-27T19:02:01.269Z,58.10
2023-02-27T19:04:33.599Z,57.76
2023-02-27T19:07:00.923Z,57.82
2023-02-27T19:09:32.733Z,57.90
2023-02-27T19:12:00.855Z,57.30
2023-02-27T19:14:28.224Z,57.14
2023-02-27T19:16:56.892Z,56.51
2023-02-27T19:19:28.126Z,56.66
2023-02-27T19:21:56.199Z,56.24
2023-02-27T19:24:24.608Z,55.31
2023-02-27T19:26:53.507Z,54.90
2023-02-27T19:29:21.375Z,54.67
2023-02-27T19:31:48.758Z,54.41
2023-02-27T19:34:16.433Z,54.85
2023-02-27T19:36:43.750Z,54.88
2023-02-27T19:39:11.778Z,54.60
2023-02-27T19:41:39.150Z,54.48
2023-02-27T19:44:07.678Z,54.51
2023-02-27T19:46:35.663Z,54.48
2023-02-27T19:49:06.038Z,54.04
2023-02-27T19:51:33.849Z,54.16
2023-02-27T19:54:01.234Z,54.41
2023-02-27T19:56:29.858Z,54.59
2023-02-27T19:58:57.835Z,54.41
2023-02-27T20:01:36.243Z,54.71
2023-02-27T20:04:04.382Z,54.48
2023-02-27T20:06:42.294Z,54.53
2023-02-27T20:09:14.504Z,55.15
2023-02-27T20:11:45.048Z,55.53
2023-02-27T20:14:14.883Z,55.83
2023-02-27T20:16:42.926Z,55.84
2023-02-27T20:19:17.941Z,56.07
2023-02-27T20:21:47.235Z,56.05
2023-02-27T20:24:15.382Z,55.32
2023-02-27T20:26:48.312Z,55.43
2023-02-27T20:29:22.902Z,55.54
2023-02-27T20:31:53.429Z,55.81
2023-02-27T20:34:26.270Z,56.44
2023-02-27T20:36:57.148Z,56.72
2023-02-27T20:39:25.388Z,57.29
2023-02-27T20:41:52.825Z,57.70
